createdAt,value
2018-12-30T00:01:43.337Z,91.95
2018-12-30T00:04:12.012Z,91.95
2018-12-30T00:06:40.739Z,92.00
2018-12-30T00:09:09.623Z,91.97
2018-12-30T00:11:38.562Z,91.94
2018-12-30T00:14:07.033Z,91.91
2018-12-30T00:16:35.499Z,91.94
2018-12-30T00:19:03.945Z,92.06
2018-12-30T00:21:32.413Z,92.17
2018-12-30T00:24:00.857Z,92.23
2018-12-30T00:26:29.345Z,92.18
2018-12-30T00:28:58.170Z,92.37
2018-12-30T00:31:26.652Z,92.30
2018-12-30T00:33:55.093Z,92.45
2018-12-30T00:36:23.563Z,92.43
2018-12-30T00:38:52.037Z,92.43
2018-12-30T00:41:20.514Z,92.43
2018-12-30T00:43:49.211Z,92.37
2018-12-30T00:46:17.690Z,92.39
2018-12-30T00:48:46.127Z,92.41
2018-12-30T00:51:17.199Z,92.47
2018-12-30T00:53:44.866Z,92.55
2018-12-30T00:56:13.333Z,92.58
2018-12-30T00:58:41.959Z,92.62
2018-12-30T01:01:10.441Z,92.76
2018-12-30T01:03:38.875Z,92.90
2018-12-30T01:06:07.429Z,92.94
2018-12-30T01:08:35.869Z,93.00
2018-12-30T01:11:04.588Z,93.05
2018-12-30T01:13:33.035Z,93.16
2018-12-30T01:16:01.511Z,93.23
2018-12-30T01:18:29.954Z,93.25
2018-12-30T01:20:58.824Z,93.26
2018-12-30T01:23:27.264Z,93.27
2018-12-30T01:25:56.091Z,93.36
2018-12-30T01:28:24.564Z,93.48
2018-12-30T01:30:53.128Z,93.47
2018-12-30T01:33:21.593Z,93.53
2018-12-30T01:35:50.040Z,93.54
2018-12-30T01:38:18.509Z,93.57
2018-12-30T01:40:46.943Z,93.55
2018-12-30T01:43:15.406Z,93.52
2018-12-30T01:45:43.849Z,93.67
2018-12-30T01:48:12.311Z,93.75
2018-12-30T01:50:40.748Z,93.80
2018-12-30T01:53:09.595Z,93.99
2018-12-30T01:55:38.149Z,94.10
2018-12-30T01:58:06.619Z,94.20
2018-12-30T02:00:35.062Z,94.19
2018-12-30T02:03:03.531Z,94.32
2018-12-30T02:05:32.254Z,94.28
2018-12-30T02:08:00.722Z,94.27
2018-12-30T02:10:29.381Z,94.29
2018-12-30T02:12:57.850Z,94.34
2018-12-30T02:15:26.295Z,94.40
2018-12-30T02:17:54.760Z,94.44
2018-12-30T02:20:23.202Z,94.49
2018-12-30T02:22:51.707Z,94.61
2018-12-30T02:25:20.169Z,94.63
2018-12-30T02:27:48.610Z,94.58
2018-12-30T02:30:17.070Z,94.63
2018-12-30T02:32:45.510Z,94.72
2018-12-30T02:35:13.969Z,94.79
2018-12-30T02:37:42.410Z,94.80
2018-12-30T02:40:10.872Z,94.79
2018-12-30T02:42:39.332Z,94.84
2018-12-30T02:45:07.960Z,94.88
2018-12-30T02:47:36.401Z,94.92
2018-12-30T02:50:06.216Z,94.96
2018-12-30T02:52:34.655Z,94.99
2018-12-30T02:55:03.289Z,94.98
2018-12-30T02:57:31.730Z,94.96
2018-12-30T03:00:00.303Z,95.00
2018-12-30T03:02:28.809Z,94.98
2018-12-30T03:04:57.270Z,94.97
2018-12-30T03:07:25.715Z,95.02
2018-12-30T03:09:54.177Z,95.08
2018-12-30T03:12:22.624Z,95.10
2018-12-30T03:14:51.081Z,95.08
2018-12-30T03:17:19.520Z,94.99
2018-12-30T03:19:47.984Z,95.04
2018-12-30T03:22:16.424Z,94.97
2018-12-30T03:24:44.864Z,94.96
2018-12-30T03:27:13.333Z,94.97
2018-12-30T03:29:41.775Z,94.99
2018-12-30T03:32:10.244Z,95.05
2018-12-30T03:34:38.680Z,95.08
2018-12-30T03:37:07.148Z,95.13
2018-12-30T03:39:35.591Z,95.11
2018-12-30T03:42:04.075Z,95.13
2018-12-30T03:44:32.488Z,95.12
2018-12-30T03:47:00.952Z,95.08
2018-12-30T03:49:29.400Z,95.11
2018-12-30T03:51:57.857Z,95.16
2018-12-30T03:54:26.297Z,95.25
2018-12-30T03:56:54.764Z,95.24
2018-12-30T03:59:23.199Z,95.22
2018-12-30T04:01:51.659Z,95.13
2018-12-30T04:04:20.106Z,95.11
2018-12-30T04:06:48.565Z,95.06
2018-12-30T04:09:17.011Z,95.04
2018-12-30T04:11:45.477Z,94.76
2018-12-30T04:14:13.915Z,94.52
2018-12-30T04:16:42.382Z,93.93
2018-12-30T04:19:10.823Z,93.45
2018-12-30T04:21:39.336Z,92.74
2018-12-30T04:24:07.913Z,92.51
2018-12-30T04:26:36.351Z,92.41
2018-12-30T04:29:04.819Z,92.32
2018-12-30T04:31:33.255Z,92.45
2018-12-30T04:34:01.720Z,92.11
2018-12-30T04:36:30.162Z,91.65
2018-12-30T04:38:58.625Z,91.64
2018-12-30T04:41:27.061Z,90.98
2018-12-30T04:43:55.524Z,90.60
2018-12-30T04:46:23.960Z,90.63
2018-12-30T04:48:52.423Z,90.57
2018-12-30T04:51:20.860Z,90.36
2018-12-30T04:53:49.381Z,90.37
2018-12-30T04:56:17.764Z,90.44
2018-12-30T04:58:46.224Z,90.76
2018-12-30T05:01:14.662Z,90.95
2018-12-30T05:03:43.124Z,91.12
2018-12-30T05:06:11.564Z,91.12
2018-12-30T05:08:40.024Z,90.90
2018-12-30T05:11:08.461Z,90.81
2018-12-30T05:13:36.921Z,90.33
2018-12-30T05:16:05.363Z,90.34
2018-12-30T05:18:33.831Z,90.49
2018-12-30T05:21:02.269Z,90.12
2018-12-30T05:23:30.735Z,89.98
2018-12-30T05:25:59.172Z,90.34
2018-12-30T05:28:27.643Z,90.44
2018-12-30T05:30:56.079Z,90.61
2018-12-30T05:33:24.546Z,90.70
2018-12-30T05:35:52.985Z,90.77
2018-12-30T05:38:21.491Z,90.82
2018-12-30T05:40:49.927Z,91.01
2018-12-30T05:43:18.395Z,90.98
2018-12-30T05:45:46.828Z,90.85
2018-12-30T05:48:15.267Z,90.66
2018-12-30T05:50:43.733Z,90.37
2018-12-30T05:53:12.167Z,90.00
2018-12-30T05:55:40.633Z,89.99
2018-12-30T05:58:09.072Z,89.88
2018-12-30T06:00:37.536Z,90.01
2018-12-30T06:03:05.980Z,89.67
2018-12-30T06:05:34.511Z,88.80
2018-12-30T06:08:02.949Z,88.01
2018-12-30T06:10:31.415Z,87.77
2018-12-30T06:12:59.855Z,87.48
2018-12-30T06:15:28.316Z,87.14
2018-12-30T06:17:56.757Z,86.63
2018-12-30T06:20:25.584Z,86.68
2018-12-30T06:22:54.025Z,86.67
2018-12-30T06:25:22.490Z,86.44
2018-12-30T06:27:50.927Z,86.45
2018-12-30T06:30:19.389Z,86.48
2018-12-30T06:32:47.829Z,86.49
2018-12-30T06:35:16.296Z,86.25
2018-12-30T06:37:44.906Z,86.35
2018-12-30T06:40:13.373Z,86.11
2018-12-30T06:42:41.814Z,86.19
2018-12-30T06:45:10.273Z,86.07
2018-12-30T06:47:38.712Z,85.57
2018-12-30T06:50:07.438Z,85.64
2018-12-30T06:52:35.950Z,85.59
2018-12-30T06:55:04.629Z,85.83
2018-12-30T06:57:33.092Z,85.62
2018-12-30T07:00:01.538Z,85.21
2018-12-30T07:02:30.004Z,85.05
2018-12-30T07:04:58.440Z,84.96
2018-12-30T07:07:26.910Z,84.59
2018-12-30T07:09:55.344Z,84.31
2018-12-30T07:12:23.812Z,84.06
2018-12-30T07:14:52.248Z,84.31
2018-12-30T07:17:20.712Z,84.24
2018-12-30T07:19:49.194Z,84.09
2018-12-30T07:22:17.657Z,84.06
2018-12-30T07:24:46.091Z,84.09
2018-12-30T07:27:14.556Z,84.00
2018-12-30T07:29:42.995Z,83.84
2018-12-30T07:32:11.459Z,83.36
2018-12-30T07:34:39.900Z,83.40
2018-12-30T07:37:08.356Z,82.95
2018-12-30T07:39:36.798Z,83.07
2018-12-30T07:42:05.259Z,83.04
2018-12-30T07:44:33.699Z,82.78
2018-12-30T07:47:02.160Z,82.69
2018-12-30T07:49:30.600Z,82.63
2018-12-30T07:51:59.070Z,82.38
2018-12-30T07:54:27.503Z,82.44
2018-12-30T07:56:55.941Z,82.01
2018-12-30T07:59:24.405Z,81.95
2018-12-30T08:01:52.841Z,82.13
2018-12-30T08:04:21.303Z,82.12
2018-12-30T08:06:49.748Z,82.12
2018-12-30T08:09:18.251Z,81.77
2018-12-30T08:11:46.694Z,81.37
2018-12-30T08:14:15.149Z,81.05
2018-12-30T08:16:43.583Z,80.36
2018-12-30T08:19:12.043Z,80.46
2018-12-30T08:21:40.483Z,80.52
2018-12-30T08:24:12.184Z,80.46
2018-12-30T08:26:40.617Z,80.52
2018-12-30T08:29:09.076Z,80.61
2018-12-30T08:31:37.521Z,80.79
2018-12-30T08:34:05.984Z,81.14
2018-12-30T08:36:34.429Z,81.38
2018-12-30T08:39:03.261Z,81.30
2018-12-30T08:41:31.699Z,81.20
2018-12-30T08:44:00.163Z,81.14
2018-12-30T08:46:28.605Z,79.99
2018-12-30T08:48:57.448Z,79.93
2018-12-30T08:51:27.325Z,79.40
2018-12-30T08:53:55.765Z,79.06
2018-12-30T08:56:24.229Z,79.36
2018-12-30T08:58:52.668Z,79.36
2018-12-30T09:01:28.225Z,79.16
2018-12-30T09:03:51.296Z,79.07
2018-12-30T09:06:19.756Z,79.22
2018-12-30T09:08:48.201Z,79.30
2018-12-30T09:11:16.669Z,79.02
2018-12-30T09:13:45.110Z,78.90
2018-12-30T09:16:13.577Z,78.59
2018-12-30T09:18:42.017Z,78.46
2018-12-30T09:21:10.480Z,78.55
2018-12-30T09:23:38.917Z,78.67
2018-12-30T09:26:07.381Z,78.23
2018-12-30T09:28:35.816Z,78.28
2018-12-30T09:31:04.283Z,78.40
2018-12-30T09:33:32.720Z,78.42
2018-12-30T09:36:01.183Z,78.34
2018-12-30T09:38:29.632Z,78.50
2018-12-30T09:40:58.092Z,78.56
2018-12-30T09:43:26.536Z,78.39
2018-12-30T09:45:54.998Z,78.29
2018-12-30T09:48:23.437Z,78.21
2018-12-30T09:50:51.899Z,78.33
2018-12-30T09:53:20.344Z,78.30
2018-12-30T09:55:48.812Z,78.15
2018-12-30T09:58:17.252Z,78.15
2018-12-30T10:00:47.509Z,78.06
2018-12-30T10:03:16.039Z,77.60
2018-12-30T10:05:44.475Z,77.27
2018-12-30T10:08:12.949Z,76.81
2018-12-30T10:10:41.390Z,76.46
2018-12-30T10:13:09.861Z,77.04
2018-12-30T10:15:38.301Z,77.00
2018-12-30T10:18:06.765Z,77.06
2018-12-30T10:20:35.199Z,77.01
2018-12-30T10:23:03.660Z,77.37
2018-12-30T10:25:32.109Z,77.13
2018-12-30T10:28:00.573Z,77.39
2018-12-30T10:30:29.042Z,77.50
2018-12-30T10:32:57.508Z,77.60
2018-12-30T10:35:25.949Z,77.25
2018-12-30T10:37:54.415Z,77.45
2018-12-30T10:40:22.860Z,77.34
2018-12-30T10:42:51.324Z,77.12
2018-12-30T10:45:19.766Z,77.16
2018-12-30T10:47:48.233Z,77.09
2018-12-30T10:50:16.670Z,76.95
2018-12-30T10:52:45.131Z,77.04
2018-12-30T10:55:13.578Z,76.98
2018-12-30T10:57:42.040Z,76.19
2018-12-30T11:00:10.481Z,75.76
2018-12-30T11:02:39.013Z,76.18
2018-12-30T11:05:07.522Z,76.10
2018-12-30T11:07:35.961Z,76.00
2018-12-30T11:10:05.264Z,76.04
2018-12-30T11:12:33.705Z,76.25
2018-12-30T11:15:02.169Z,76.07
2018-12-30T11:17:30.613Z,75.36
2018-12-30T11:19:59.084Z,74.98
2018-12-30T11:22:27.701Z,75.28
2018-12-30T11:24:56.164Z,75.73
2018-12-30T11:27:24.605Z,75.43
2018-12-30T11:29:53.067Z,74.80
2018-12-30T11:32:22.076Z,74.60
2018-12-30T11:34:50.545Z,74.70
2018-12-30T11:37:18.985Z,74.63
2018-12-30T11:39:47.453Z,74.87
2018-12-30T11:42:15.892Z,74.11
2018-12-30T11:44:44.357Z,73.81
2018-12-30T11:47:12.798Z,73.90
2018-12-30T11:49:41.266Z,73.60
2018-12-30T11:52:09.705Z,73.82
2018-12-30T11:54:38.173Z,73.70
2018-12-30T11:57:06.689Z,73.96
2018-12-30T11:59:35.152Z,73.25
2018-12-30T12:02:03.761Z,72.89
2018-12-30T12:04:32.230Z,73.09
2018-12-30T12:07:00.668Z,73.15
2018-12-30T12:09:29.199Z,73.13
2018-12-30T12:11:57.634Z,73.42
2018-12-30T12:14:26.070Z,73.50
2018-12-30T12:16:54.535Z,73.10
2018-12-30T12:19:22.972Z,73.59
2018-12-30T12:21:51.435Z,73.47
2018-12-30T12:24:24.220Z,73.33
2018-12-30T12:26:50.077Z,73.80
2018-12-30T12:29:18.516Z,73.97
2018-12-30T12:31:46.982Z,73.97
2018-12-30T12:34:15.421Z,74.08
2018-12-30T12:36:43.880Z,74.01
2018-12-30T12:39:12.315Z,74.13
2018-12-30T12:41:40.780Z,74.29
2018-12-30T12:44:09.221Z,74.38
2018-12-30T12:46:37.700Z,74.45
2018-12-30T12:49:06.135Z,74.59
2018-12-30T12:51:34.607Z,74.27
2018-12-30T12:54:03.061Z,74.30
2018-12-30T12:56:31.521Z,74.61
2018-12-30T12:58:59.963Z,74.68
2018-12-30T13:01:28.426Z,74.88
2018-12-30T13:03:57.426Z,75.08
2018-12-30T13:06:25.892Z,75.29
2018-12-30T13:08:54.338Z,75.30
2018-12-30T13:11:22.805Z,75.32
2018-12-30T13:13:51.251Z,75.08
2018-12-30T13:16:19.744Z,74.77
2018-12-30T13:18:48.246Z,75.17
2018-12-30T13:21:16.688Z,74.61
2018-12-30T13:23:45.148Z,74.76
2018-12-30T13:26:13.590Z,75.04
2018-12-30T13:28:42.057Z,74.98
2018-12-30T13:31:10.606Z,75.08
2018-12-30T13:33:39.076Z,75.10
2018-12-30T13:36:09.961Z,74.83
2018-12-30T13:38:38.434Z,75.05
2018-12-30T13:41:06.876Z,75.31
2018-12-30T13:43:35.341Z,75.33
2018-12-30T13:46:03.780Z,75.52
2018-12-30T13:48:32.245Z,75.72
2018-12-30T13:51:00.687Z,75.38
2018-12-30T13:53:29.436Z,75.46
2018-12-30T13:55:59.556Z,75.42
2018-12-30T13:58:28.025Z,75.49
2018-12-30T14:00:56.465Z,75.42
2018-12-30T14:03:24.941Z,75.29
2018-12-30T14:05:53.376Z,75.48
2018-12-30T14:08:21.845Z,75.25
2018-12-30T14:10:50.287Z,75.33
2018-12-30T14:13:18.752Z,75.24
2018-12-30T14:15:51.069Z,75.25
2018-12-30T14:18:17.385Z,75.19
2018-12-30T14:20:45.823Z,75.61
2018-12-30T14:23:14.261Z,75.73
2018-12-30T14:25:42.729Z,75.83
2018-12-30T14:28:11.172Z,75.91
2018-12-30T14:30:39.637Z,76.00
2018-12-30T14:33:08.076Z,75.99
2018-12-30T14:35:36.541Z,75.79
2018-12-30T14:38:04.985Z,75.73
2018-12-30T14:40:33.456Z,75.96
2018-12-30T14:43:01.900Z,75.78
2018-12-30T14:45:30.369Z,76.05
2018-12-30T14:47:58.807Z,76.14
2018-12-30T14:50:27.271Z,76.32
2018-12-30T14:52:55.719Z,76.54
2018-12-30T14:55:24.191Z,76.66
2018-12-30T14:57:52.633Z,76.66
2018-12-30T15:00:21.103Z,76.72
2018-12-30T15:02:49.549Z,76.85
2018-12-30T15:05:18.021Z,77.03
2018-12-30T15:07:46.457Z,77.08
2018-12-30T15:10:14.923Z,77.04
2018-12-30T15:12:43.365Z,77.06
2018-12-30T15:15:11.831Z,77.19
2018-12-30T15:17:40.278Z,77.44
2018-12-30T15:20:08.742Z,77.47
2018-12-30T15:22:37.189Z,77.53
2018-12-30T15:25:11.594Z,77.68
2018-12-30T15:27:36.192Z,77.75
2018-12-30T15:30:06.394Z,77.87
2018-12-30T15:32:34.838Z,77.99
2018-12-30T15:35:03.753Z,78.04
2018-12-30T15:37:32.226Z,78.18
2018-12-30T15:40:00.673Z,78.33
2018-12-30T15:42:29.140Z,78.48
2018-12-30T15:44:57.586Z,78.63
2018-12-30T15:47:26.056Z,78.68
2018-12-30T15:49:54.514Z,78.79
2018-12-30T15:52:22.986Z,78.86
2018-12-30T15:54:51.424Z,78.93
2018-12-30T15:57:19.893Z,78.95
2018-12-30T15:59:48.338Z,79.03
2018-12-30T16:02:16.805Z,79.03
2018-12-30T16:04:45.249Z,78.96
2018-12-30T16:07:13.716Z,78.91
2018-12-30T16:09:42.186Z,78.72
2018-12-30T16:12:10.629Z,78.80
2018-12-30T16:14:39.074Z,78.80
2018-12-30T16:17:07.535Z,78.78
2018-12-30T16:19:35.978Z,78.66
2018-12-30T16:22:04.444Z,78.46
2018-12-30T16:24:32.891Z,78.12
2018-12-30T16:27:01.357Z,78.06
2018-12-30T16:29:29.793Z,77.62
2018-12-30T16:31:58.269Z,77.49
2018-12-30T16:34:26.707Z,77.00
2018-12-30T16:36:55.173Z,76.95
2018-12-30T16:39:23.609Z,76.65
2018-12-30T16:41:52.083Z,76.50
2018-12-30T16:44:20.526Z,76.48
2018-12-30T16:46:49.000Z,76.38
2018-12-30T16:49:17.440Z,76.33
2018-12-30T16:51:45.913Z,76.44
2018-12-30T16:54:14.357Z,76.21
2018-12-30T16:56:42.803Z,76.35
2018-12-30T16:59:11.268Z,76.17
2018-12-30T17:01:39.708Z,76.27
2018-12-30T17:04:08.168Z,76.14
2018-12-30T17:06:36.616Z,76.10
2018-12-30T17:09:07.018Z,76.23
2018-12-30T17:11:35.463Z,76.27
2018-12-30T17:14:03.930Z,76.01
2018-12-30T17:16:32.410Z,75.97
2018-12-30T17:19:00.878Z,76.02
2018-12-30T17:21:29.329Z,75.82
2018-12-30T17:23:57.793Z,75.87
2018-12-30T17:26:26.238Z,76.03
2018-12-30T17:28:54.783Z,76.09
2018-12-30T17:31:23.230Z,76.12
2018-12-30T17:33:51.697Z,76.10
2018-12-30T17:36:20.138Z,76.15
2018-12-30T17:38:48.606Z,76.02
2018-12-30T17:41:17.046Z,76.12
2018-12-30T17:43:45.542Z,76.11
2018-12-30T17:46:18.200Z,76.00
2018-12-30T17:48:44.249Z,76.05
2018-12-30T17:51:12.699Z,75.93
2018-12-30T17:53:41.152Z,75.77
2018-12-30T17:56:09.594Z,75.53
2018-12-30T17:58:38.061Z,75.58
2018-12-30T18:01:06.501Z,75.37
2018-12-30T18:03:34.972Z,75.21
2018-12-30T18:06:03.417Z,75.03
2018-12-30T18:08:31.862Z,75.03
2018-12-30T18:11:00.328Z,75.04
2018-12-30T18:13:28.764Z,75.25
2018-12-30T18:15:57.228Z,75.30
2018-12-30T18:18:25.674Z,75.33
2018-12-30T18:20:54.141Z,75.42
2018-12-30T18:23:22.581Z,75.56
2018-12-30T18:25:58.459Z,75.72
2018-12-30T18:28:21.216Z,75.78
2018-12-30T18:30:49.685Z,75.99
2018-12-30T18:33:18.125Z,76.11
2018-12-30T18:35:46.602Z,76.27
2018-12-30T18:38:15.049Z,76.13
2018-12-30T18:40:43.510Z,76.27
2018-12-30T18:43:11.950Z,76.28
2018-12-30T18:45:40.418Z,76.35
2018-12-30T18:48:08.861Z,76.22
2018-12-30T18:50:37.328Z,76.22
2018-12-30T18:53:05.774Z,76.25
2018-12-30T18:55:34.246Z,76.20
2018-12-30T18:58:02.684Z,76.19
2018-12-30T19:00:31.154Z,76.21
2018-12-30T19:02:59.592Z,76.09
2018-12-30T19:05:28.055Z,75.99
2018-12-30T19:07:56.504Z,76.14
2018-12-30T19:10:24.986Z,76.28
2018-12-30T19:12:53.428Z,76.42
2018-12-30T19:15:21.868Z,76.39
2018-12-30T19:17:50.337Z,76.48
2018-12-30T19:20:18.789Z,76.59
2018-12-30T19:22:47.259Z,76.72
2018-12-30T19:25:15.699Z,76.70
2018-12-30T19:27:44.240Z,76.80
2018-12-30T19:30:12.682Z,76.83
2018-12-30T19:32:41.143Z,76.71
2018-12-30T19:35:09.588Z,76.94
2018-12-30T19:37:38.049Z,77.00
2018-12-30T19:40:09.433Z,77.15
2018-12-30T19:42:37.895Z,77.22
2018-12-30T19:45:07.181Z,77.29
2018-12-30T19:47:35.649Z,77.37
2018-12-30T19:50:05.211Z,77.55
2018-12-30T19:52:33.673Z,77.68
2018-12-30T19:55:02.120Z,77.92
2018-12-30T19:57:30.587Z,78.20
2018-12-30T19:59:59.086Z,78.48
2018-12-30T20:02:27.553Z,78.79
2018-12-30T20:04:55.993Z,79.05
2018-12-30T20:07:24.460Z,79.23
2018-12-30T20:09:52.907Z,79.60
2018-12-30T20:12:21.373Z,80.16
2018-12-30T20:14:49.883Z,80.50
2018-12-30T20:17:18.363Z,80.86
2018-12-30T20:19:46.804Z,81.36
2018-12-30T20:22:15.270Z,81.57
2018-12-30T20:24:43.715Z,81.99
2018-12-30T20:27:12.182Z,82.24
2018-12-30T20:29:40.627Z,82.55
2018-12-30T20:32:09.094Z,82.93
2018-12-30T20:34:37.542Z,83.09
2018-12-30T20:37:06.030Z,83.31
2018-12-30T20:39:34.557Z,83.64
2018-12-30T20:42:03.004Z,83.75
2018-12-30T20:44:31.469Z,84.12
2018-12-30T20:46:59.913Z,84.34
2018-12-30T20:49:28.383Z,84.73
2018-12-30T20:51:56.856Z,85.10
2018-12-30T20:54:25.332Z,85.52
2018-12-30T20:56:53.853Z,85.73
2018-12-30T20:59:22.317Z,85.88
2018-12-30T21:01:50.778Z,86.09
2018-12-30T21:04:19.245Z,86.31
2018-12-30T21:06:47.687Z,86.31
2018-12-30T21:09:16.156Z,86.46
2018-12-30T21:11:44.598Z,86.62
2018-12-30T21:14:13.065Z,86.88
2018-12-30T21:16:41.508Z,86.97
2018-12-30T21:19:10.029Z,87.34
2018-12-30T21:21:38.476Z,87.34
2018-12-30T21:24:06.937Z,87.23
2018-12-30T21:26:35.377Z,87.59
2018-12-30T21:29:03.844Z,87.59
2018-12-30T21:31:32.293Z,87.85
2018-12-30T21:34:00.810Z,87.87
2018-12-30T21:36:29.268Z,87.87
2018-12-30T21:38:57.713Z,87.74
2018-12-30T21:41:26.178Z,87.72
2018-12-30T21:43:54.624Z,88.09
2018-12-30T21:46:23.093Z,87.63
2018-12-30T21:48:51.533Z,87.63
2018-12-30T21:51:20.034Z,88.17
2018-12-30T21:53:48.483Z,88.08
2018-12-30T21:56:16.949Z,87.37
2018-12-30T21:58:45.393Z,87.37
2018-12-30T22:01:13.861Z,87.75
2018-12-30T22:03:42.310Z,87.92
2018-12-30T22:06:10.777Z,88.11
2018-12-30T22:08:39.329Z,88.11
2018-12-30T22:11:07.827Z,88.11
2018-12-30T22:13:36.274Z,88.19
2018-12-30T22:16:04.752Z,88.52
2018-12-30T22:18:33.193Z,89.03
2018-12-30T22:21:01.662Z,88.50
2018-12-30T22:23:30.146Z,88.50
2018-12-30T22:25:58.578Z,88.76
2018-12-30T22:28:27.023Z,89.07
2018-12-30T22:30:55.489Z,89.15
2018-12-30T22:33:23.939Z,89.38
2018-12-30T22:35:52.407Z,89.60
2018-12-30T22:38:20.857Z,89.74
2018-12-30T22:40:49.326Z,89.73
2018-12-30T22:43:17.765Z,89.76
2018-12-30T22:45:46.257Z,89.87
2018-12-30T22:48:14.693Z,90.24
2018-12-30T22:50:43.139Z,90.62
2018-12-30T22:53:11.606Z,90.92
2018-12-30T22:55:40.049Z,91.21
2018-12-30T22:58:08.518Z,90.98
2018-12-30T23:00:41.435Z,90.98
2018-12-30T23:03:09.909Z,91.40
2018-12-30T23:05:38.345Z,91.43
2018-12-30T23:08:06.814Z,91.54
2018-12-30T23:10:35.257Z,91.69
2018-12-30T23:13:03.725Z,91.72
2018-12-30T23:15:32.170Z,92.01
2018-12-30T23:18:00.636Z,92.14
2018-12-30T23:20:29.082Z,92.14
2018-12-30T23:22:57.572Z,92.12
2018-12-30T23:25:26.013Z,92.05
2018-12-30T23:27:54.485Z,91.93
2018-12-30T23:30:22.935Z,91.84
2018-12-30T23:32:51.401Z,91.83
2018-12-30T23:35:19.845Z,91.90
2018-12-30T23:37:48.311Z,91.32
2018-12-30T23:40:16.759Z,91.32
2018-12-30T23:42:45.234Z,91.65
2018-12-30T23:45:13.676Z,91.62
2018-12-30T23:47:42.146Z,91.59
2018-12-30T23:50:10.720Z,91.62
2018-12-30T23:52:39.265Z,91.38
2018-12-30T23:55:07.735Z,91.38
2018-12-30T23:57:36.178Z,91.74
